Time;durP1;ratioP1;P1;durP2;ratioP2;P2;SDS_P1;SDS_P2;PMS_P1;PMS_P2;Temp;Humidity;BMP_temperature;BMP_pressure;BME280_temperature;BME280_humidity;BME280_pressure;Samples;Min_cycle;Max_cycle;Signal;HPM_P1;HPM_P2
2023/02/17 00:02:08;;;;;;;13.35;5.80;;;;;;;-3.45;60.13;100287.97;5093039;28;20031;-45
2023/02/17 00:04:34;;;;;;;12.05;5.88;;;;;;;-3.39;60.12;100294.94;5093040;28;20069;-44
2023/02/17 00:07:00;;;;;;;12.35;5.00;;;;;;;-3.42;59.64;100283.88;5090620;28;20503;-44
2023/02/17 00:09:26;;;;;;;11.45;5.68;;;;;;;-3.47;59.82;100289.63;5090807;28;20126;-46
2023/02/17 00:11:52;;;;;;;10.90;5.43;;;;;;;-3.46;60.06;100287.16;5076167;28;20041;-46
2023/02/17 00:14:18;;;;;;;11.90;5.43;;;;;;;-3.60;60.03;100296.00;5075682;28;20047;-45
2023/02/17 00:16:44;;;;;;;11.98;5.20;;;;;;;-3.61;59.99;100289.19;5108204;28;20051;-45
2023/02/17 00:19:24;;;;;;;11.95;5.20;;;;;;;-3.57;60.21;100288.47;5110353;28;20172;-45
2023/02/17 00:21:50;;;;;;;12.10;6.03;;;;;;;-3.55;60.02;100297.00;5109572;28;20032;-46
2023/02/17 00:24:16;;;;;;;6.63;3.72;;;;;;;-3.55;59.85;100285.97;5109733;28;20043;-46
2023/02/17 00:26:42;;;;;;;8.18;4.65;;;;;;;-3.80;59.99;100291.94;5108972;28;20031;-44
2023/02/17 00:29:08;;;;;;;9.88;4.95;;;;;;;-3.89;60.53;100289.13;5108274;28;20043;-45
2023/02/17 00:31:34;;;;;;;11.57;4.90;;;;;;;-3.96;60.30;100294.78;5094453;28;20054;-44
2023/02/17 00:34:00;;;;;;;8.60;4.53;;;;;;;-3.95;60.50;100289.78;5088370;28;20216;-44
2023/02/17 00:36:26;;;;;;;10.43;5.03;;;;;;;-4.01;60.48;100278.53;5098894;28;20040;-43
2023/02/17 00:38:54;;;;;;;14.35;5.90;;;;;;;-3.97;60.58;100285.44;5108705;28;20041;-47
2023/02/17 00:41:20;;;;;;;13.07;5.90;;;;;;;-3.82;60.80;100280.88;5091712;28;20042;-47
2023/02/17 00:43:47;;;;;;;9.35;5.40;;;;;;;-4.00;60.53;100226.97;5106381;28;20101;-44
2023/02/17 00:46:16;;;;;;;10.88;5.40;;;;;;;-3.58;60.53;100280.81;5108563;28;20058;-44
2023/02/17 00:48:44;;;;;;;10.35;5.22;;;;;;;-3.67;60.33;100277.97;5107969;28;20427;-43
2023/02/17 00:51:13;;;;;;;8.90;4.85;;;;;;;-3.75;60.41;100280.25;5091494;28;20055;-46
2023/02/17 00:53:40;;;;;;;11.10;5.40;;;;;;;-3.78;60.53;100276.78;5107777;28;20091;-45
2023/02/17 00:56:07;;;;;;;10.25;4.97;;;;;;;-3.87;60.36;100247.69;5090690;28;20131;-45
2023/02/17 00:58:33;;;;;;;10.25;4.78;;;;;;;-3.69;60.75;100270.28;5109245;28;20078;-45
2023/02/17 01:00:59;;;;;;;10.75;5.03;;;;;;;-3.80;60.34;100250.44;5108421;28;20039;-44
2023/02/17 01:03:26;;;;;;;10.95;4.95;;;;;;;-3.89;60.74;100230.72;5090247;28;20041;-45
2023/02/17 01:05:53;;;;;;;8.70;4.47;;;;;;;-3.62;59.83;100274.78;5109709;28;20044;-44
2023/02/17 01:08:20;;;;;;;10.60;4.70;;;;;;;-3.53;60.33;100271.66;5072090;28;20055;-44
2023/02/17 01:10:47;;;;;;;9.50;4.78;;;;;;;-3.49;60.11;100263.28;5091804;28;20149;-44
2023/02/17 01:13:15;;;;;;;8.85;5.10;;;;;;;-3.48;59.68;100265.03;5090745;28;20040;-46
2023/02/17 01:15:47;;;;;;;12.45;5.55;;;;;;;-3.48;60.02;100260.81;5075092;28;20532;-46
2023/02/17 01:18:15;;;;;;;9.98;5.45;;;;;;;-3.49;60.19;100263.28;5091239;28;20043;-44
2023/02/17 01:20:42;;;;;;;14.23;5.35;;;;;;;-3.42;60.06;100275.38;5090478;28;20137;-44
2023/02/17 01:23:09;;;;;;;13.60;5.38;;;;;;;-3.38;60.05;100267.03;5077838;28;20511;-46
2023/02/17 01:25:36;;;;;;;11.80;5.85;;;;;;;-3.36;60.54;100262.00;5087513;28;20682;-44
2023/02/17 01:28:02;;;;;;;9.57;5.40;;;;;;;-3.31;60.04;100260.47;5105473;28;20045;-46
2023/02/17 01:30:28;;;;;;;11.82;5.80;;;;;;;-3.26;60.04;100258.91;5107855;28;20039;-48
2023/02/17 01:32:54;;;;;;;11.45;5.45;;;;;;;-3.24;59.73;100268.28;5108207;28;20529;-47
2023/02/17 01:35:21;;;;;;;8.00;4.47;;;;;;;-3.31;60.04;100268.94;5109210;28;20041;-44
2023/02/17 01:37:47;;;;;;;9.63;5.15;;;;;;;-3.62;59.92;100238.34;5107862;28;20035;-46
2023/02/17 01:40:16;;;;;;;11.45;6.03;;;;;;;-3.56;60.54;100264.78;5086305;28;20039;-44
2023/02/17 01:42:42;;;;;;;12.23;6.07;;;;;;;-3.50;60.14;100262.44;5102665;28;20047;-45
2023/02/17 01:45:18;;;;;;;8.60;4.82;;;;;;;-3.59;60.69;100259.59;5108529;28;20046;-44
2023/02/17 01:47:51;;;;;;;12.77;5.32;;;;;;;-3.56;60.52;100264.78;5107076;28;20142;-46
2023/02/17 01:50:20;;;;;;;13.32;5.72;;;;;;;-3.48;60.62;100258.25;5105538;28;20092;-45
2023/02/17 01:52:46;;;;;;;13.20;5.60;;;;;;;-3.61;60.57;100234.97;5089441;28;20499;-45
2023/02/17 01:55:15;;;;;;;10.52;5.32;;;;;;;-3.42;60.21;100261.00;5108675;28;20777;-47
2023/02/17 01:57:41;;;;;;;12.88;5.85;;;;;;;-3.42;60.54;100263.53;5090521;28;20044;-46
2023/02/17 02:00:09;;;;;;;12.02;5.53;;;;;;;-3.38;60.44;100268.72;5086647;28;20040;-46
2023/02/17 02:02:41;;;;;;;11.50;5.78;;;;;;;-3.43;60.67;100258.41;5070094;28;20036;-44
2023/02/17 02:05:07;;;;;;;14.07;5.70;;;;;;;-3.29;60.45;100263.88;5088588;28;20051;-45
2023/02/17 02:07:34;;;;;;;12.75;5.30;;;;;;;-3.19;60.29;100269.28;5106526;28;20156;-46
2023/02/17 02:10:01;;;;;;;12.63;6.35;;;;;;;-3.20;60.20;100274.38;5096834;28;20071;-47
2023/02/17 02:12:33;;;;;;;10.30;4.45;;;;;;;-3.27;59.81;100275.84;5086677;28;20070;-47
2023/02/17 02:15:04;;;;;;;10.43;5.00;;;;;;;-3.38;60.08;100266.16;5081436;28;20031;-47
2023/02/17 02:17:33;;;;;;;;;;;;;;;-3.35;59.92;100263.72;5108999;28;20470;-46
2023/02/17 02:20:07;;;;;;;7.45;4.10;;;;;;;-3.36;60.15;100262.88;5106803;28;20417;-46
2023/02/17 02:22:59;;;;;;;11.88;4.93;;;;;;;-3.34;60.42;100255.25;5106248;28;20047;-47
2023/02/17 02:25:41;;;;;;;7.38;4.07;;;;;;;-3.30;60.14;100268.16;5106877;28;20252;-47
2023/02/17 02:28:30;;;;;;;11.57;4.75;;;;;;;-3.28;60.11;100263.09;5107671;28;20128;-47
2023/02/17 02:31:08;;;;;;;8.43;4.38;;;;;;;-3.24;60.32;100260.66;5089176;28;20050;-48
2023/02/17 02:34:02;;;;;;;8.32;4.53;;;;;;;-3.20;60.21;100257.44;5108382;28;20126;-44
2023/02/17 02:36:33;;;;;;;7.75;4.50;;;;;;;-3.16;59.89;100266.00;5089979;28;20127;-45
2023/02/17 02:39:02;;;;;;;7.07;4.35;;;;;;;-3.31;60.04;100240.13;5106420;28;20032;-44
2023/02/17 02:41:28;;;;;;;;;;;;;;;-3.13;60.00;100268.63;5086892;28;20066;-45
2023/02/17 02:43:55;;;;;;;7.90;4.45;;;;;;;-3.32;59.96;100233.31;5101147;28;19923;-43
2023/02/17 02:46:22;;;;;;;10.65;4.50;;;;;;;-3.32;60.04;100251.97;5105126;28;20043;-45
2023/02/17 02:48:50;;;;;;;8.65;4.20;;;;;;;-3.40;60.12;100258.47;5105649;28;20035;-43
2023/02/17 02:51:29;;;;;;;7.13;3.97;;;;;;;-3.40;60.12;100258.47;5106479;28;20039;-46
2023/02/17 02:54:11;;;;;;;7.05;4.43;;;;;;;-3.40;60.20;100268.66;5072833;28;20047;-45
2023/02/17 02:56:43;;;;;;;9.77;4.65;;;;;;;-3.37;60.04;100263.69;5089770;28;20050;-45
2023/02/17 02:59:23;;;;;;;7.88;4.00;;;;;;;-3.37;60.56;100270.44;5088440;28;20121;-44
2023/02/17 03:01:52;;;;;;;8.98;4.40;;;;;;;-3.34;60.08;100273.94;5090183;28;20067;-43
2023/02/17 03:04:35;;;;;;;8.68;4.00;;;;;;;-3.37;59.96;100271.31;5072340;28;20086;-44
2023/02/17 03:07:19;;;;;;;8.15;4.38;;;;;;;-3.60;60.21;100246.84;5105199;28;20048;-44
2023/02/17 03:09:48;;;;;;;8.95;4.15;;;;;;;-3.42;59.91;100272.84;5109925;28;20426;-44
2023/02/17 03:12:14;;;;;;;8.93;4.28;;;;;;;-3.38;60.16;100266.16;5076475;28;20054;-44
2023/02/17 03:14:41;;;;;;;9.55;4.50;;;;;;;-3.39;60.65;100266.97;5108561;28;20059;-46
2023/02/17 03:17:07;;;;;;;11.63;5.03;;;;;;;-3.33;60.17;100264.63;5109604;28;20550;-45
2023/02/17 03:19:34;;;;;;;8.35;4.70;;;;;;;-3.32;60.13;100251.97;5093358;28;20043;-43
2023/02/17 03:22:21;;;;;;;9.05;4.82;;;;;;;-3.45;60.69;100219.34;5107965;28;20049;-43
2023/02/17 03:24:48;;;;;;;9.73;4.65;;;;;;;-3.38;60.47;100235.66;5093244;28;20035;-45
2023/02/17 03:27:14;;;;;;;11.38;4.45;;;;;;;-3.22;60.32;100263.28;5108802;28;20051;-44
2023/02/17 03:29:40;;;;;;;9.48;4.55;;;;;;;-3.21;60.42;100249.75;5076180;28;20041;-45
2023/02/17 03:32:06;;;;;;;10.07;5.07;;;;;;;-3.19;61.03;100248.13;5074931;28;20040;-44
2023/02/17 03:34:32;;;;;;;7.88;4.47;;;;;;;-3.22;60.32;100248.00;5090798;28;20040;-44
2023/02/17 03:36:58;;;;;;;8.40;4.60;;;;;;;-3.22;60.82;100251.41;5101416;28;20043;-45
2023/02/17 03:39:24;;;;;;;9.43;5.00;;;;;;;-3.17;60.78;100256.63;5084068;28;20035;-45
2023/02/17 03:41:51;;;;;;;9.85;4.60;;;;;;;-3.16;60.93;100256.69;5101317;28;20487;-44
2023/02/17 03:44:17;;;;;;;11.27;5.32;;;;;;;-3.13;60.54;100264.41;5109827;28;20443;-46
2023/02/17 03:46:44;;;;;;;8.70;4.75;;;;;;;-3.11;60.57;100259.38;5110047;28;20127;-44
2023/02/17 03:49:11;;;;;;;10.15;4.85;;;;;;;-3.08;60.60;100256.91;5110994;28;20035;-46
2023/02/17 03:51:36;;;;;;;12.23;6.13;;;;;;;-3.08;60.75;100255.22;5109854;28;20133;-45
2023/02/17 03:54:02;;;;;;;9.85;5.10;;;;;;;-3.06;60.70;100255.28;5109569;28;20122;-44
2023/02/17 03:56:28;;;;;;;11.50;5.18;;;;;;;-3.07;61.16;100266.25;5109402;28;20818;-44
2023/02/17 03:58:54;;;;;;;12.48;5.50;;;;;;;-3.10;60.33;100256.88;5107965;28;20090;-45
2023/02/17 04:01:21;;;;;;;10.85;5.55;;;;;;;-3.24;60.62;100240.34;5109073;28;20036;-46
2023/02/17 04:03:47;;;;;;;10.73;5.70;;;;;;;-3.12;61.03;100253.41;5109936;28;20043;-45
2023/02/17 04:06:13;;;;;;;13.27;5.85;;;;;;;-3.12;61.14;100270.34;5109138;27;20054;-43
2023/02/17 04:08:39;;;;;;;10.02;4.65;;;;;;;-3.30;60.84;100235.09;5110442;28;20151;-46
2023/02/17 04:11:07;;;;;;;13.10;5.28;;;;;;;-3.18;61.53;100258.31;5108587;28;20042;-42
2023/02/17 04:13:33;;;;;;;11.27;5.47;;;;;;;-3.14;61.54;100267.75;5109205;28;20048;-43
2023/02/17 04:16:00;;;;;;;13.07;6.05;;;;;;;-3.26;61.59;100244.53;5089119;28;20507;-44
2023/02/17 04:18:27;;;;;;;11.25;5.30;;;;;;;-3.25;61.84;100266.59;5110063;28;20076;-43
2023/02/17 04:20:53;;;;;;;9.75;5.13;;;;;;;-3.26;61.86;100267.41;5108069;28;20047;-46
2023/02/17 04:23:19;;;;;;;12.00;5.95;;;;;;;-3.34;61.60;100243.41;5075195;28;20035;-44
2023/02/17 04:25:45;;;;;;;11.05;5.22;;;;;;;-3.17;61.72;100249.88;5110417;28;20145;-44
2023/02/17 04:28:12;;;;;;;10.90;5.22;;;;;;;-3.15;61.79;100263.50;5108781;28;20036;-43
2023/02/17 04:30:38;;;;;;;10.40;5.55;;;;;;;-3.27;61.93;100252.97;5102993;28;20040;-44
2023/02/17 04:33:04;;;;;;;11.27;5.25;;;;;;;-3.37;61.86;100248.44;5108826;28;20073;-45
2023/02/17 04:35:30;;;;;;;11.15;5.82;;;;;;;-3.45;61.72;100224.44;5108870;28;20106;-47
2023/02/17 04:37:57;;;;;;;8.45;3.75;;;;;;;-3.38;61.66;100263.63;5108179;28;20039;-52
2023/02/17 04:40:23;;;;;;;10.95;4.90;;;;;;;-3.67;62.38;100255.13;5094262;28;20070;-45
2023/02/17 04:42:48;;;;;;;10.25;5.10;;;;;;;-3.73;62.63;100250.69;5097357;28;20075;-47
2023/02/17 04:45:15;;;;;;;10.43;5.28;;;;;;;-3.85;62.61;100225.75;5099398;28;20036;-46
2023/02/17 04:47:41;;;;;;;11.98;5.47;;;;;;;-3.55;62.32;100263.09;5084314;28;20487;-50
2023/02/17 04:50:08;;;;;;;10.15;5.18;;;;;;;-3.47;62.57;100261.69;5075063;28;20036;-47
2023/02/17 04:52:34;;;;;;;9.38;4.68;;;;;;;-3.36;62.68;100270.50;5087993;28;20048;-47
2023/02/17 04:55:00;;;;;;;12.68;5.70;;;;;;;-3.49;62.29;100223.50;5087909;28;20606;-48
2023/02/17 04:57:26;;;;;;;13.23;5.60;;;;;;;-3.20;62.43;100267.59;5099395;28;20039;-47
2023/02/17 04:59:52;;;;;;;12.55;5.60;;;;;;;-3.45;62.26;100232.94;5069887;28;20119;-45
2023/02/17 05:02:18;;;;;;;13.60;6.38;;;;;;;-3.44;62.25;100262.63;5108815;28;20133;-45
2023/02/17 05:04:44;;;;;;;13.52;6.13;;;;;;;-3.49;62.90;100241.28;5096252;28;20579;-42
2023/02/17 05:07:09;;;;;;;12.82;6.03;;;;;;;-3.52;62.54;100214.94;5088892;28;20055;-44
2023/02/17 05:09:37;;;;;;;12.35;6.63;;;;;;;-3.16;62.31;100266.00;5098783;28;20517;-59
